Time;durP1;ratioP1;P1;durP2;ratioP2;P2;SDS_P1;SDS_P2;PMS_P1;PMS_P2;Temp;Humidity;BMP_temperature;BMP_pressure;BME280_temperature;BME280_humidity;BME280_pressure;Samples;Min_cycle;Max_cycle;Signal;HPM_P1;HPM_P2
2022/03/08 00:02:09;;;;;;;17.92;10.50;;;;;;;;;;6094781;23;20018;-81
2022/03/08 00:04:36;;;;;;;15.40;9.50;;;;;;;;;;6094677;23;20106;-81
2022/03/08 00:07:02;;;;;;;15.90;10.15;;;;;;;;;;6094776;23;20025;-81
2022/03/08 00:09:28;;;;;;;13.80;9.48;;;;;;;;;;6094665;23;20093;-81
2022/03/08 00:11:54;;;;;;;14.38;9.63;;;;;;;;;;6070661;23;20385;-81
2022/03/08 00:14:20;;;;;;;13.88;9.52;;;;;;;;;;6094618;23;20041;-81
2022/03/08 00:16:47;;;;;;;12.95;9.55;;;;;;;;;;6095076;23;20014;-81
2022/03/08 00:19:13;;;;;;;14.40;9.90;;;;;;;;;;6094607;23;20014;-81
2022/03/08 00:21:40;;;;;;;15.07;10.02;;;;;;;;;;6094772;23;20349;-81
2022/03/08 00:24:06;;;;;;;17.17;9.95;;;;;;;;;;6094786;23;20014;-81
2022/03/08 00:26:32;;;;;;;15.27;9.45;;;;;;;;;;6094364;23;20060;-81
2022/03/08 00:28:58;;;;;;;17.70;10.43;;;;;;;;;;6070342;23;20014;-80
2022/03/08 00:31:24;;;;;;;14.20;10.18;;;;;;;;;;6094469;23;20092;-81
2022/03/08 00:33:50;;;;;;;13.43;10.23;;;;;;;;;;6094406;23;20014;-81
2022/03/08 00:36:16;;;;;;;15.60;10.25;;;;;;;;;;6094482;23;20021;-81
2022/03/08 00:38:42;;;;;;;13.40;9.95;;;;;;;;;;6094844;23;20022;-80
2022/03/08 00:41:08;;;;;;;15.30;10.32;;;;;;;;;;6094943;23;20013;-80
2022/03/08 00:43:34;;;;;;;14.32;10.25;;;;;;;;;;6094743;23;20407;-80
2022/03/08 00:46:01;;;;;;;14.02;9.98;;;;;;;;;;6094893;23;20049;-81
2022/03/08 00:48:27;;;;;;;14.02;9.15;;;;;;;;;;6093531;23;20014;-81
2022/03/08 00:50:53;;;;;;;13.82;9.75;;;;;;;;;;6094556;23;20052;-80
2022/03/08 00:53:19;;;;;;;14.65;10.10;;;;;;;;;;6070529;23;20014;-80
2022/03/08 00:55:45;;;;;;;15.20;9.70;;;;;;;;;;6094470;23;20010;-80
2022/03/08 00:58:11;;;;;;;15.20;10.55;;;;;;;;;;6094832;23;20021;-80
2022/03/08 01:00:38;;;;;;;17.35;10.73;;;;;;;;;;6094401;23;20020;-80
2022/03/08 01:03:04;;;;;;;15.32;10.25;;;;;;;;;;6094581;23;20014;-80
2022/03/08 01:05:31;;;;;;;15.07;9.43;;;;;;;;;;6094499;23;20169;-80
2022/03/08 01:07:57;;;;;;;14.93;10.27;;;;;;;;;;6094417;23;20021;-80
2022/03/08 01:10:24;;;;;;;13.05;9.23;;;;;;;;;;6070578;23;20416;-80
2022/03/08 01:12:51;;;;;;;15.07;10.73;;;;;;;;;;6072378;23;20018;-80
2022/03/08 01:15:18;;;;;;;15.63;10.10;;;;;;;;;;6096214;23;20343;-80
2022/03/08 01:17:44;;;;;;;16.17;10.57;;;;;;;;;;6096243;23;20021;-80
2022/03/08 01:20:10;;;;;;;13.98;9.63;;;;;;;;;;6096459;23;20017;-80
2022/03/08 01:22:37;;;;;;;15.45;10.95;;;;;;;;;;6096128;23;20072;-80
2022/03/08 01:25:04;;;;;;;16.88;11.00;;;;;;;;;;6096094;23;20448;-80
2022/03/08 01:27:30;;;;;;;15.73;11.35;;;;;;;;;;6072319;23;20036;-80
2022/03/08 01:29:56;;;;;;;15.50;10.40;;;;;;;;;;6095949;23;20037;-80
2022/03/08 01:32:22;;;;;;;16.05;11.38;;;;;;;;;;6072361;23;20097;-80
2022/03/08 01:34:48;;;;;;;16.90;11.82;;;;;;;;;;6096133;23;20014;-80
2022/03/08 01:37:14;;;;;;;19.08;11.82;;;;;;;;;;6096251;23;20085;-80
2022/03/08 01:39:40;;;;;;;18.75;11.70;;;;;;;;;;6072207;23;20018;-80
2022/03/08 01:42:10;;;;;;;15.43;10.75;;;;;;;;;;6096140;23;20024;-80
2022/03/08 01:44:36;;;;;;;19.13;12.85;;;;;;;;;;6096111;23;20092;-80
2022/03/08 01:47:02;;;;;;;18.02;10.70;;;;;;;;;;6096118;23;20468;-80
2022/03/08 01:49:28;;;;;;;16.08;11.23;;;;;;;;;;6072052;23;20022;-80
2022/03/08 01:51:54;;;;;;;16.25;11.40;;;;;;;;;;6096157;23;20388;-80
2022/03/08 01:54:20;;;;;;;16.60;11.50;;;;;;;;;;6096216;23;20006;-80
2022/03/08 01:56:46;;;;;;;17.13;11.50;;;;;;;;;;6072125;23;20021;-80
2022/03/08 01:59:12;;;;;;;17.50;11.48;;;;;;;;;;6072038;23;20088;-80
2022/03/08 02:01:38;;;;;;;16.92;11.68;;;;;;;;;;6095992;23;20018;-80
2022/03/08 02:04:04;;;;;;;16.42;11.30;;;;;;;;;;6072159;23;20014;-80
2022/03/08 02:06:31;;;;;;;16.77;11.32;;;;;;;;;;6071997;23;20064;-80
2022/03/08 02:08:57;;;;;;;18.40;11.98;;;;;;;;;;6095785;23;20020;-80
2022/03/08 02:11:23;;;;;;;16.15;12.02;;;;;;;;;;6072004;23;20088;-80
2022/03/08 02:13:49;;;;;;;19.48;12.25;;;;;;;;;;6095827;23;20014;-80
2022/03/08 02:16:15;;;;;;;16.60;11.23;;;;;;;;;;6071902;23;20018;-80
2022/03/08 02:18:42;;;;;;;16.65;11.32;;;;;;;;;;6095867;23;20024;-80
2022/03/08 02:21:08;;;;;;;17.02;11.77;;;;;;;;;;6095634;23;20017;-79
2022/03/08 02:23:34;;;;;;;14.77;11.10;;;;;;;;;;6095780;23;20018;-80
2022/03/08 02:26:01;;;;;;;17.48;12.25;;;;;;;;;;6071779;23;20029;-80
2022/03/08 02:28:28;;;;;;;17.42;12.52;;;;;;;;;;6095704;23;20069;-79
2022/03/08 02:30:54;;;;;;;15.82;11.15;;;;;;;;;;6095532;23;20018;-79
2022/03/08 02:33:20;;;;;;;18.13;12.20;;;;;;;;;;6095743;23;20392;-79
2022/03/08 02:35:46;;;;;;;18.23;11.93;;;;;;;;;;6095857;23;20097;-79
2022/03/08 02:38:12;;;;;;;17.38;12.27;;;;;;;;;;6095680;23;20437;-79
2022/03/08 02:40:42;;;;;;;19.40;13.05;;;;;;;;;;6095604;23;20041;-79
2022/03/08 02:43:09;;;;;;;18.98;13.50;;;;;;;;;;6095598;23;20021;-79
2022/03/08 02:45:36;;;;;;;18.27;12.90;;;;;;;;;;6095460;23;20014;-79
2022/03/08 02:48:03;;;;;;;19.65;13.43;;;;;;;;;;6070935;23;20387;-79
2022/03/08 02:50:29;;;;;;;18.08;13.40;;;;;;;;;;6095796;23;20089;-79
2022/03/08 02:52:56;;;;;;;18.70;13.23;;;;;;;;;;6094980;23;20010;-80
2022/03/08 02:55:23;;;;;;;16.85;12.63;;;;;;;;;;6095163;23;20018;-79
2022/03/08 02:57:50;;;;;;;17.75;11.98;;;;;;;;;;6071518;23;20211;-79
2022/03/08 03:00:19;;;;;;;18.15;12.80;;;;;;;;;;6095534;23;20018;-79
2022/03/08 03:02:45;;;;;;;17.95;12.40;;;;;;;;;;6071393;23;20018;-79
2022/03/08 03:05:11;;;;;;;17.20;12.18;;;;;;;;;;6095569;23;20029;-79
2022/03/08 03:07:37;;;;;;;19.48;12.88;;;;;;;;;;6095685;23;20064;-79
2022/03/08 03:10:07;;;;;;;18.85;13.48;;;;;;;;;;6095137;23;20452;-79
2022/03/08 03:12:33;;;;;;;21.50;12.65;;;;;;;;;;6095012;23;20471;-79
2022/03/08 03:14:59;;;;;;;19.23;13.13;;;;;;;;;;6071374;23;20160;-79
2022/03/08 03:17:25;;;;;;;18.48;12.80;;;;;;;;;;6071245;23;20025;-79
2022/03/08 03:19:51;;;;;;;19.55;12.77;;;;;;;;;;6094925;23;20034;-79
2022/03/08 03:22:17;;;;;;;16.33;11.48;;;;;;;;;;6071545;23;20073;-79
2022/03/08 03:24:43;;;;;;;19.67;13.85;;;;;;;;;;6095236;23;20049;-79
2022/03/08 03:27:09;;;;;;;20.83;14.18;;;;;;;;;;6095173;23;20377;-80
2022/03/08 03:29:35;;;;;;;18.35;13.30;;;;;;;;;;6095071;23;20089;-79
2022/03/08 03:32:01;;;;;;;18.77;14.98;;;;;;;;;;6095140;23;20018;-79
2022/03/08 03:34:27;;;;;;;19.92;13.80;;;;;;;;;;6094755;23;20068;-79
2022/03/08 03:36:53;;;;;;;21.02;13.65;;;;;;;;;;6095273;23;20072;-79
2022/03/08 03:39:19;;;;;;;19.58;14.27;;;;;;;;;;6095422;23;20021;-80
2022/03/08 03:41:45;;;;;;;20.55;14.30;;;;;;;;;;6095079;23;20053;-79
2022/03/08 03:44:11;;;;;;;19.33;13.48;;;;;;;;;;6094979;23;20021;-79
2022/03/08 03:46:37;;;;;;;19.42;14.30;;;;;;;;;;6094988;23;20329;-79
2022/03/08 03:49:04;;;;;;;19.50;13.73;;;;;;;;;;6094865;23;20014;-79
2022/03/08 03:51:30;;;;;;;18.52;13.63;;;;;;;;;;6094909;23;20014;-79
2022/03/08 03:53:56;;;;;;;21.92;14.55;;;;;;;;;;6120869;23;20045;-79
2022/03/08 03:56:22;;;;;;;19.83;13.70;;;;;;;;;;6071209;23;20025;-79
2022/03/08 03:58:48;;;;;;;23.63;15.25;;;;;;;;;;6094963;23;20017;-79
2022/03/08 04:01:15;;;;;;;25.38;15.32;;;;;;;;;;6095227;23;20014;-79
2022/03/08 04:03:41;;;;;;;21.17;13.50;;;;;;;;;;6070889;23;20017;-79
2022/03/08 04:06:07;;;;;;;23.90;15.70;;;;;;;;;;6094782;23;20018;-79
2022/03/08 04:08:33;;;;;;;23.42;15.45;;;;;;;;;;6070834;23;20018;-79
2022/03/08 04:10:59;;;;;;;22.05;14.38;;;;;;;;;;6094769;23;20081;-79
2022/03/08 04:13:25;;;;;;;20.40;14.18;;;;;;;;;;6094640;23;20014;-79
2022/03/08 04:15:52;;;;;;;22.60;15.23;;;;;;;;;;6094749;23;20380;-79
2022/03/08 04:18:19;;;;;;;20.45;14.73;;;;;;;;;;6094731;23;20088;-79
2022/03/08 04:20:45;;;;;;;22.05;15.35;;;;;;;;;;6094665;23;20037;-79
2022/03/08 04:23:11;;;;;;;19.13;14.38;;;;;;;;;;6094555;23;20406;-79
2022/03/08 04:25:37;;;;;;;20.27;13.75;;;;;;;;;;6094743;23;20392;-79
2022/03/08 04:28:04;;;;;;;19.58;14.43;;;;;;;;;;6070568;23;20351;-79
2022/03/08 04:30:30;;;;;;;22.35;15.43;;;;;;;;;;6094461;23;20460;-79
2022/03/08 04:32:56;;;;;;;20.48;14.88;;;;;;;;;;6094487;23;20018;-79
2022/03/08 04:35:22;;;;;;;19.88;14.48;;;;;;;;;;6070625;23;20412;-79
2022/03/08 04:37:48;;;;;;;21.42;14.52;;;;;;;;;;6094654;23;20088;-79
2022/03/08 04:40:14;;;;;;;21.15;13.77;;;;;;;;;;6070529;23;20014;-79
2022/03/08 04:42:41;;;;;;;18.60;14.30;;;;;;;;;;6070517;23;20133;-79
2022/03/08 04:45:09;;;;;;;21.73;16.17;;;;;;;;;;6094421;23;20053;-79
2022/03/08 04:47:36;;;;;;;23.08;16.67;;;;;;;;;;6094559;23;20096;-79
2022/03/08 04:50:07;;;;;;;21.17;14.95;;;;;;;;;;6070411;23;20018;-79
2022/03/08 04:52:33;;;;;;;23.55;16.75;;;;;;;;;;6094487;23;20411;-79
2022/03/08 04:54:59;;;;;;;21.27;14.80;;;;;;;;;;6094528;23;20084;-79
2022/03/08 04:57:25;;;;;;;24.20;16.80;;;;;;;;;;6094887;23;20089;-79
2022/03/08 04:59:52;;;;;;;25.45;18.00;;;;;;;;;;6094234;23;20457;-79
2022/03/08 05:02:18;;;;;;;23.20;15.75;;;;;;;;;;6094390;23;20021;-79
2022/03/08 05:04:44;;;;;;;25.08;16.00;;;;;;;;;;6094389;23;20013;-79
2022/03/08 05:07:10;;;;;;;25.67;17.63;;;;;;;;;;6094184;23;20076;-79
2022/03/08 05:09:36;;;;;;;22.60;15.57;;;;;;;;;;6094232;23;20068;-79
2022/03/08 05:12:02;;;;;;;24.92;17.45;;;;;;;;;;6094369;23;20018;-79
2022/03/08 05:14:28;;;;;;;24.63;16.90;;;;;;;;;;6094443;23;20014;-79
2022/03/08 05:16:54;;;;;;;22.00;16.80;;;;;;;;;;6070454;23;20018;-79
2022/03/08 05:19:20;;;;;;;23.23;16.08;;;;;;;;;;6093992;23;20022;-79
2022/03/08 05:21:46;;;;;;;23.90;16.90;;;;;;;;;;6094211;23;20260;-79
2022/03/08 05:24:13;;;;;;;23.83;16.67;;;;;;;;;;6094310;23;20127;-79
2022/03/08 05:26:40;;;;;;;24.88;16.98;;;;;;;;;;6070426;23;20024;-80
2022/03/08 05:29:06;;;;;;;22.58;16.08;;;;;;;;;;6094014;23;20041;-79
2022/03/08 05:31:33;;;;;;;22.05;15.48;;;;;;;;;;6094357;23;20033;-79
2022/03/08 05:33:59;;;;;;;23.33;15.90;;;;;;;;;;6093397;23;20014;-79
2022/03/08 05:36:25;;;;;;;21.00;15.00;;;;;;;;;;6093870;23;20089;-79
2022/03/08 05:38:51;;;;;;;23.63;16.17;;;;;;;;;;6094540;23;20407;-79
2022/03/08 05:41:17;;;;;;;22.63;16.42;;;;;;;;;;6094358;23;20036;-79
2022/03/08 05:43:43;;;;;;;21.13;15.57;;;;;;;;;;6094156;23;20089;-79
2022/03/08 05:46:09;;;;;;;21.80;16.40;;;;;;;;;;6094300;23;20329;-79
2022/03/08 05:48:35;;;;;;;24.75;17.05;;;;;;;;;;6070127;23;20066;-79
2022/03/08 05:51:01;;;;;;;24.00;15.45;;;;;;;;;;6094355;23;20024;-79
2022/03/08 05:53:27;;;;;;;23.88;16.00;;;;;;;;;;6094423;23;20018;-79
2022/03/08 05:55:53;;;;;;;25.70;16.15;;;;;;;;;;6094314;23;20681;-79
2022/03/08 05:58:19;;;;;;;23.50;15.95;;;;;;;;;;6095787;23;20014;-78
2022/03/08 06:00:45;;;;;;;23.00;15.70;;;;;;;;;;6071886;23;20089;-78
2022/03/08 06:03:11;;;;;;;26.08;17.40;;;;;;;;;;6095931;23;20037;-78
2022/03/08 06:05:37;;;;;;;24.52;16.48;;;;;;;;;;6095807;23;20018;-79
2022/03/08 06:08:04;;;;;;;25.60;18.05;;;;;;;;;;6095785;23;20009;-78
2022/03/08 06:10:31;;;;;;;27.90;17.67;;;;;;;;;;6096280;23;20041;-79
2022/03/08 06:12:57;;;;;;;24.33;17.63;;;;;;;;;;6095599;23;20045;-78
2022/03/08 06:15:23;;;;;;;25.67;17.20;;;;;;;;;;6095793;23;20021;-79
2022/03/08 06:17:49;;;;;;;25.38;16.77;;;;;;;;;;6071565;23;20018;-79
2022/03/08 06:20:15;;;;;;;23.55;16.15;;;;;;;;;;6095816;23;20014;-79
2022/03/08 06:22:41;;;;;;;27.48;18.45;;;;;;;;;;6096081;23;20466;-79
2022/03/08 06:25:07;;;;;;;27.67;17.13;;;;;;;;;;6095842;23;20072;-79
2022/03/08 06:27:33;;;;;;;25.77;17.15;;;;;;;;;;6094800;23;20097;-78
2022/03/08 06:29:59;;;;;;;23.13;15.98;;;;;;;;;;6095357;23;20025;-79
2022/03/08 06:32:25;;;;;;;29.88;18.90;;;;;;;;;;6096073;23;20057;-79
2022/03/08 06:34:51;;;;;;;27.95;19.15;;;;;;;;;;6095710;23;20697;-78
2022/03/08 06:37:18;;;;;;;28.40;17.80;;;;;;;;;;6071418;23;20014;-78
2022/03/08 06:39:45;;;;;;;29.85;17.63;;;;;;;;;;6121447;23;20018;-79
2022/03/08 06:42:11;;;;;;;25.85;16.73;;;;;;;;;;6095726;23;20014;-78
2022/03/08 06:44:40;;;;;;;25.50;16.45;;;;;;;;;;6095759;23;20539;-78
2022/03/08 06:47:10;;;;;;;25.98;15.35;;;;;;;;;;6094304;23;20523;-78
2022/03/08 06:49:40;;;;;;;26.30;17.30;;;;;;;;;;6093477;23;20021;-78
2022/03/08 06:52:07;;;;;;;29.00;17.70;;;;;;;;;;6094047;23;20036;-78
2022/03/08 06:54:33;;;;;;;30.40;19.40;;;;;;;;;;6094000;23;20014;-78
2022/03/08 06:56:59;;;;;;;31.23;20.50;;;;;;;;;;6093890;23;20329;-78
2022/03/08 06:59:25;;;;;;;30.02;19.50;;;;;;;;;;6094224;23;20089;-78
2022/03/08 07:01:52;;;;;;;28.02;18.00;;;;;;;;;;6094336;23;20171;-78
2022/03/08 07:04:18;;;;;;;28.33;17.92;;;;;;;;;;6070865;23;20029;-78
2022/03/08 07:06:44;;;;;;;27.02;18.55;;;;;;;;;;6095372;23;20097;-78
2022/03/08 07:09:10;;;;;;;27.10;18.15;;;;;;;;;;6093969;23;20022;-78
2022/03/08 07:11:36;;;;;;;28.63;17.17;;;;;;;;;;6093593;23;20468;-78
2022/03/08 07:14:05;;;;;;;33.20;19.27;;;;;;;;;;6095045;23;20025;-78
2022/03/08 07:16:31;;;;;;;31.52;19.17;;;;;;;;;;6094889;23;20516;-78
2022/03/08 07:18:57;;;;;;;29.42;19.10;;;;;;;;;;6095308;23;20018;-78
2022/03/08 07:21:23;;;;;;;31.75;17.58;;;;;;;;;;6094957;23;20017;-78
2022/03/08 07:23:49;;;;;;;31.67;19.00;;;;;;;;;;6094904;23;20049;-79
2022/03/08 07:26:15;;;;;;;29.65;18.40;;;;;;;;;;6094788;23;20017;-78
2022/03/08 07:28:41;;;;;;;24.98;16.58;;;;;;;;;;6070836;23;20022;-78
2022/03/08 07:31:08;;;;;;;31.77;19.45;;;;;;;;;;6094660;23;20053;-78
2022/03/08 07:33:34;;;;;;;27.30;18.08;;;;;;;;;;6094751;23;20064;-78
2022/03/08 07:36:00;;;;;;;27.95;18.17;;;;;;;;;;6095162;23;20021;-79
2022/03/08 07:38:26;;;;;;;31.15;18.98;;;;;;;;;;6070876;23;20013;-78
2022/03/08 07:40:53;;;;;;;28.00;18.17;;;;;;;;;;6094669;23;20530;-79
2022/03/08 07:43:19;;;;;;;30.95;17.77;;;;;;;;;;6070613;23;20013;-79
2022/03/08 07:45:45;;;;;;;29.42;19.25;;;;;;;;;;6070890;23;20014;-79
2022/03/08 07:48:11;;;;;;;31.75;18.50;;;;;;;;;;6095994;23;20022;-79
2022/03/08 07:50:37;;;;;;;28.40;18.35;;;;;;;;;;6070647;23;20088;-79
2022/03/08 07:53:04;;;;;;;30.35;17.65;;;;;;;;;;6094603;23;20068;-79
2022/03/08 07:55:30;;;;;;;28.60;17.98;;;;;;;;;;6070636;23;20041;-79
2022/03/08 07:57:57;;;;;;;26.17;16.35;;;;;;;;;;6094561;23;20077;-79
2022/03/08 08:00:23;;;;;;;24.83;16.60;;;;;;;;;;6070582;23;20073;-79
2022/03/08 08:02:49;;;;;;;28.67;17.63;;;;;;;;;;6094693;23;20014;-79
2022/03/08 08:05:17;;;;;;;24.25;15.25;;;;;;;;;;6094527;23;20452;-79
2022/03/08 08:07:43;;;;;;;25.33;17.10;;;;;;;;;;6094286;23;20416;-79
2022/03/08 08:10:10;;;;;;;25.33;15.75;;;;;;;;;;6094514;23;20080;-80
2022/03/08 08:12:36;;;;;;;25.30;15.65;;;;;;;;;;6070399;23;20357;-79
2022/03/08 08:15:02;;;;;;;24.92;15.80;;;;;;;;;;6094499;23;20045;-79
2022/03/08 08:17:28;;;;;;;24.02;15.20;;;;;;;;;;6094470;23;20017;-80
2022/03/08 08:19:54;;;;;;;25.52;16.70;;;;;;;;;;6094357;23;20080;-80
2022/03/08 08:22:20;;;;;;;24.10;14.70;;;;;;;;;;6094339;23;20018;-82
2022/03/08 08:24:46;;;;;;;24.17;14.82;;;;;;;;;;6070391;23;20335;-80
2022/03/08 08:27:12;;;;;;;21.90;13.90;;;;;;;;;;6094489;23;20046;-80
2022/03/08 08:29:38;;;;;;;22.13;14.48;;;;;;;;;;6093967;23;20018;-80
2022/03/08 08:32:04;;;;;;;23.73;14.85;;;;;;;;;;6094444;23;20068;-80
2022/03/08 08:34:30;;;;;;;24.00;14.70;;;;;;;;;;6094168;23;20082;-80
2022/03/08 08:36:56;;;;;;;22.90;13.63;;;;;;;;;;6094257;23;20009;-80
2022/03/08 08:39:22;;;;;;;20.65;13.68;;;;;;;;;;6070549;23;20097;-80
2022/03/08 08:41:48;;;;;;;21.40;13.57;;;;;;;;;;6094366;23;20018;-80
2022/03/08 08:44:14;;;;;;;21.02;14.27;;;;;;;;;;6094442;23;20108;-81
2022/03/08 08:46:40;;;;;;;19.63;13.75;;;;;;;;;;6070404;23;20018;-81
2022/03/08 08:49:06;;;;;;;19.83;13.25;;;;;;;;;;6094133;23;20022;-80
2022/03/08 08:51:32;;;;;;;21.67;13.52;;;;;;;;;;6070163;23;20014;-81
2022/03/08 08:54:00;;;;;;;18.88;12.70;;;;;;;;;;6070674;23;20010;-80
2022/03/08 08:56:26;;;;;;;19.63;13.13;;;;;;;;;;6094004;23;20014;-80
2022/03/08 08:58:52;;;;;;;22.10;13.25;;;;;;;;;;6094635;23;20056;-81
2022/03/08 09:01:18;;;;;;;17.65;11.80;;;;;;;;;;6070062;23;20018;-81
2022/03/08 09:03:44;;;;;;;18.58;12.98;;;;;;;;;;6094766;23;20084;-82
2022/03/08 09:06:10;;;;;;;18.70;12.60;;;;;;;;;;6094694;23;20045;-82
2022/03/08 09:08:36;;;;;;;19.38;13.00;;;;;;;;;;6094115;23;20148;-81
2022/03/08 09:11:05;;;;;;;16.70;11.30;;;;;;;;;;6094232;23;20096;-82
2022/03/08 09:13:31;;;;;;;15.80;11.05;;;;;;;;;;6094312;23;20356;-82
2022/03/08 09:15:57;;;;;;;16.90;11.77;;;;;;;;;;6094339;23;20045;-80
2022/03/08 09:18:23;;;;;;;16.33;11.18;;;;;;;;;;6070237;23;20022;-81
2022/03/08 09:20:50;;;;;;;16.77;10.80;;;;;;;;;;6094275;23;20018;-82
2022/03/08 09:23:16;;;;;;;16.95;11.25;;;;;;;;;;6094232;23;20089;-81
2022/03/08 09:25:42;;;;;;;14.88;10.85;;;;;;;;;;6094253;23;20049;-82
2022/03/08 09:28:08;;;;;;;15.95;10.20;;;;;;;;;;6094254;23;20475;-84
2022/03/08 09:30:35;;;;;;;14.68;10.63;;;;;;;;;;6093211;23;20018;-82
2022/03/08 09:33:01;;;;;;;16.02;10.38;;;;;;;;;;6071361;23;20016;-80
2022/03/08 09:35:27;;;;;;;13.32;10.05;;;;;;;;;;6096087;23;20133;-82
2022/03/08 09:37:54;;;;;;;16.25;11.10;;;;;;;;;;6072103;23;20010;-82
2022/03/08 09:40:20;;;;;;;15.10;9.80;;;;;;;;;;6096072;23;20018;-82
2022/03/08 09:42:46;;;;;;;14.10;10.32;;;;;;;;;;6095679;23;20115;-82
2022/03/08 09:45:14;;;;;;;15.95;10.43;;;;;;;;;;6096010;23;20457;-82
2022/03/08 09:47:40;;;;;;;15.82;11.13;;;;;;;;;;6095930;23;20092;-82
2022/03/08 09:50:07;;;;;;;14.88;10.43;;;;;;;;;;6095484;23;20052;-82
2022/03/08 09:52:34;;;;;;;15.50;9.57;;;;;;;;;;6095882;23;20372;-82
2022/03/08 09:55:00;;;;;;;13.65;10.13;;;;;;;;;;6096285;23;20010;-82
2022/03/08 09:57:26;;;;;;;12.57;9.07;;;;;;;;;;6071918;23;20045;-83
2022/03/08 09:59:52;;;;;;;14.93;10.23;;;;;;;;;;6098197;23;20450;-81
2022/03/08 10:02:18;;;;;;;16.15;10.23;;;;;;;;;;6097908;23;20022;-82
2022/03/08 10:04:44;;;;;;;14.35;10.30;;;;;;;;;;6095437;23;20021;-82
2022/03/08 10:07:11;;;;;;;14.50;10.45;;;;;;;;;;6095773;23;20029;-82
2022/03/08 10:09:38;;;;;;;14.02;9.70;;;;;;;;;;6095776;23;20018;-84
2022/03/08 10:12:14;;;;;;;13.18;8.93;;;;;;;;;;6095730;23;20010;-83
2022/03/08 10:14:40;;;;;;;13.05;8.98;;;;;;;;;;6095951;23;20065;-86
2022/03/08 10:17:06;;;;;;;12.80;9.32;;;;;;;;;;6095731;23;20018;-85
2022/03/08 10:19:43;;;;;;;12.88;8.77;;;;;;;;;;6095755;23;20022;-86
2022/03/08 10:22:23;;;;;;;12.68;8.43;;;;;;;;;;6095751;23;20018;-85
2022/03/08 10:24:49;;;;;;;13.30;8.75;;;;;;;;;;6095592;23;20014;-82
2022/03/08 10:27:16;;;;;;;11.27;8.20;;;;;;;;;;6095473;23;20477;-83
2022/03/08 10:29:42;;;;;;;11.95;8.32;;;;;;;;;;6095211;23;20123;-83
2022/03/08 10:32:10;;;;;;;10.45;7.88;;;;;;;;;;6095420;23;20024;-82
2022/03/08 10:34:37;;;;;;;11.18;7.90;;;;;;;;;;6094544;23;20017;-82
2022/03/08 10:37:10;;;;;;;10.05;7.15;;;;;;;;;;6095409;23;20061;-85
2022/03/08 10:39:47;;;;;;;10.68;7.43;;;;;;;;;;6071595;23;20092;-83
2022/03/08 10:42:18;;;;;;;10.68;8.13;;;;;;;;;;6071066;23;20018;-83
2022/03/08 10:44:44;;;;;;;10.73;7.22;;;;;;;;;;6094905;23;20399;-82
2022/03/08 10:47:12;;;;;;;11.35;8.07;;;;;;;;;;6070145;23;20056;-82
2022/03/08 10:49:50;;;;;;;11.30;7.50;;;;;;;;;;6070493;23;20018;-83
2022/03/08 10:52:16;;;;;;;10.88;7.60;;;;;;;;;;6095246;23;20014;-82
2022/03/08 10:54:42;;;;;;;11.18;7.53;;;;;;;;;;6095324;23;20014;-83
2022/03/08 10:57:09;;;;;;;11.38;7.30;;;;;;;;;;6095289;23;20021;-84
2022/03/08 10:59:35;;;;;;;10.75;7.78;;;;;;;;;;6071101;23;20133;-81
2022/03/08 11:02:30;;;;;;;11.52;7.50;;;;;;;;;;6095163;23;20017;-83
2022/03/08 11:04:56;;;;;;;;;;;;;;;;;;6087527;23;20392;-82
2022/03/08 11:07:22;;;;;;;12.20;7.22;;;;;;;;;;6095059;23;19912;-82
2022/03/08 11:09:48;;;;;;;10.02;7.18;;;;;;;;;;6095096;23;20018;-82
2022/03/08 11:12:14;;;;;;;10.70;7.60;;;;;;;;;;6071501;23;20010;-83
2022/03/08 11:14:40;;;;;;;11.60;7.78;;;;;;;;;;6095237;23;20136;-82
2022/03/08 11:17:07;;;;;;;9.65;6.93;;;;;;;;;;6094672;23;20014;-83
2022/03/08 11:19:33;;;;;;;10.93;7.50;;;;;;;;;;6095057;23;20519;-84
2022/03/08 11:21:59;;;;;;;10.63;7.40;;;;;;;;;;6095126;23;20443;-82
2022/03/08 11:24:25;;;;;;;9.80;7.28;;;;;;;;;;6095101;23;20064;-83
2022/03/08 11:26:51;;;;;;;10.48;7.90;;;;;;;;;;6095003;23;20025;-81
2022/03/08 11:29:18;;;;;;;10.55;7.28;;;;;;;;;;6070643;23;20018;-82
2022/03/08 11:31:45;;;;;;;10.48;6.78;;;;;;;;;;6095108;23;20045;-82
2022/03/08 11:34:22;;;;;;;8.85;6.57;;;;;;;;;;6095267;23;20440;-83
2022/03/08 11:37:02;;;;;;;11.10;6.78;;;;;;;;;;6093962;23;20069;-83
2022/03/08 11:39:29;;;;;;;9.18;6.32;;;;;;;;;;6093677;23;20025;-83
2022/03/08 11:41:56;;;;;;;9.45;6.75;;;;;;;;;;6070048;23;20078;-83
2022/03/08 11:44:27;;;;;;;13.10;6.40;;;;;;;;;;6093473;23;20052;-81
2022/03/08 11:47:12;;;;;;;7.97;5.40;;;;;;;;;;6093582;23;20467;-82
2022/03/08 11:49:40;;;;;;;8.57;5.80;;;;;;;;;;6093388;23;20215;-83
2022/03/08 11:52:24;;;;;;;8.32;5.38;;;;;;;;;;6093644;23;20045;-83
2022/03/08 11:54:53;;;;;;;8.20;5.53;;;;;;;;;;6093434;23;20049;-81
2022/03/08 11:57:38;;;;;;;7.90;5.68;;;;;;;;;;6093723;23;20014;-81
2022/03/08 12:00:17;;;;;;;7.85;5.50;;;;;;;;;;6093590;23;20088;-80
2022/03/08 12:02:46;;;;;;;8.50;5.35;;;;;;;;;;6093712;23;20014;-81
2022/03/08 12:05:31;;;;;;;7.40;5.18;;;;;;;;;;6093640;23;20017;-84
2022/03/08 12:07:57;;;;;;;7.53;5.20;;;;;;;;;;6093494;23;20367;-80
2022/03/08 12:10:24;;;;;;;8.88;5.60;;;;;;;;;;6093487;23;20450;-82
2022/03/08 12:12:53;;;;;;;8.68;5.20;;;;;;;;;;6093652;23;20093;-80
2022/03/08 12:15:19;;;;;;;8.15;5.18;;;;;;;;;;6093684;23;20021;-79
2022/03/08 12:18:04;;;;;;;8.23;5.20;;;;;;;;;;6093550;23;20089;-81
2022/03/08 12:20:30;;;;;;;8.15;5.60;;;;;;;;;;6093492;23;20022;-81
2022/03/08 12:23:09;;;;;;;8.15;5.40;;;;;;;;;;6093434;23;20036;-80
2022/03/08 12:25:35;;;;;;;8.35;5.80;;;;;;;;;;6093199;23;20026;-80
2022/03/08 12:28:02;;;;;;;9.00;5.40;;;;;;;;;;6093362;23;20022;-78
2022/03/08 12:30:41;;;;;;;8.73;5.93;;;;;;;;;;6093238;23;20025;-80
2022/03/08 12:33:07;;;;;;;8.02;5.32;;;;;;;;;;6093470;23;20021;-82
2022/03/08 12:35:34;;;;;;;7.80;5.00;;;;;;;;;;6093354;23;20014;-82
2022/03/08 12:38:02;;;;;;;9.80;5.32;;;;;;;;;;6093307;23;20345;-80
2022/03/08 12:40:33;;;;;;;8.43;5.25;;;;;;;;;;6093311;23;20013;-81
2022/03/08 12:43:01;;;;;;;8.57;5.63;;;;;;;;;;6094086;23;20014;-82
2022/03/08 12:45:29;;;;;;;7.70;5.07;;;;;;;;;;6096623;23;20020;-81
2022/03/08 12:47:56;;;;;;;9.30;5.80;;;;;;;;;;6071498;23;20445;-82
2022/03/08 12:50:24;;;;;;;10.27;5.93;;;;;;;;;;6070482;23;20077;-80
2022/03/08 12:52:51;;;;;;;8.35;5.40;;;;;;;;;;6071800;23;20014;-82
2022/03/08 12:55:22;;;;;;;8.50;5.80;;;;;;;;;;6094671;23;20010;-81
2022/03/08 12:58:07;;;;;;;7.25;5.03;;;;;;;;;;6094069;23;20014;-81
2022/03/08 13:00:33;;;;;;;9.65;5.65;;;;;;;;;;6093370;23;20022;-82
2022/03/08 13:03:00;;;;;;;8.45;5.60;;;;;;;;;;6069686;23;20072;-82
2022/03/08 13:05:28;;;;;;;8.95;5.50;;;;;;;;;;6093426;23;20123;-81
2022/03/08 13:07:55;;;;;;;8.52;5.60;;;;;;;;;;6094731;23;20656;-82
2022/03/08 13:10:21;;;;;;;8.70;5.60;;;;;;;;;;6071381;23;20021;-84
2022/03/08 13:12:51;;;;;;;9.07;5.70;;;;;;;;;;6095857;23;20014;-84
2022/03/08 13:15:18;;;;;;;9.02;5.55;;;;;;;;;;6095857;23;20024;-82
2022/03/08 13:17:46;;;;;;;8.85;5.50;;;;;;;;;;6095565;23;20511;-83
2022/03/08 13:20:29;;;;;;;8.73;5.45;;;;;;;;;;6071071;23;20022;-83
2022/03/08 13:22:56;;;;;;;9.25;5.70;;;;;;;;;;6071203;23;20018;-81
2022/03/08 13:25:22;;;;;;;9.20;5.10;;;;;;;;;;6096150;23;20025;-81
2022/03/08 13:27:51;;;;;;;7.88;5.40;;;;;;;;;;6072204;23;20022;-80
2022/03/08 13:30:20;;;;;;;8.50;5.18;;;;;;;;;;6096247;23;20025;-81
2022/03/08 13:32:46;;;;;;;8.30;5.07;;;;;;;;;;6098523;23;20014;-81
2022/03/08 13:35:12;;;;;;;8.95;5.13;;;;;;;;;;6099257;23;20104;-82
2022/03/08 13:38:05;;;;;;;9.38;5.43;;;;;;;;;;6098388;23;20010;-81
2022/03/08 13:40:33;;;;;;;8.40;5.20;;;;;;;;;;6071064;23;20018;-83
2022/03/08 13:42:59;;;;;;;7.95;5.22;;;;;;;;;;6097695;23;20061;-82
2022/03/08 13:45:25;;;;;;;9.27;5.40;;;;;;;;;;6097742;23;20014;-82
2022/03/08 13:47:55;;;;;;;9.38;5.20;;;;;;;;;;6097954;23;20101;-81
2022/03/08 13:50:25;;;;;;;9.80;6.00;;;;;;;;;;6096429;23;20014;-81
2022/03/08 13:52:56;;;;;;;9.52;5.63;;;;;;;;;;6096113;23;20010;-81
2022/03/08 13:55:26;;;;;;;9.85;5.70;;;;;;;;;;6097923;23;20703;-81
2022/03/08 13:57:56;;;;;;;9.98;6.40;;;;;;;;;;6099020;23;20014;-82
2022/03/08 14:00:26;;;;;;;10.15;5.68;;;;;;;;;;6074661;23;20097;-81
2022/03/08 14:02:56;;;;;;;9.93;6.15;;;;;;;;;;6098491;23;20108;-81
2022/03/08 14:05:22;;;;;;;9.38;5.57;;;;;;;;;;6098550;23;20101;-82
2022/03/08 14:08:09;;;;;;;10.60;5.68;;;;;;;;;;6098534;23;20014;-81
2022/03/08 14:10:35;;;;;;;9.20;5.65;;;;;;;;;;6073518;23;20093;-81
2022/03/08 14:13:08;;;;;;;9.70;5.55;;;;;;;;;;6096106;23;20018;-81
2022/03/08 14:15:51;;;;;;;9.13;5.97;;;;;;;;;;6071427;23;20065;-82
2022/03/08 14:18:17;;;;;;;8.18;5.22;;;;;;;;;;6095447;23;20065;-84
2022/03/08 14:20:43;;;;;;;8.18;5.40;;;;;;;;;;6097416;23;20101;-82
2022/03/08 14:23:10;;;;;;;7.63;4.68;;;;;;;;;;6098254;23;20081;-85
2022/03/08 14:25:37;;;;;;;8.40;5.25;;;;;;;;;;6098871;23;20025;-80